createdAt,value
2023-05-05T00:01:53.504Z,7.10
2023-05-05T00:04:22.731Z,6.20
2023-05-05T00:06:50.789Z,6.80
2023-05-05T00:09:18.263Z,5.93
2023-05-05T00:11:45.262Z,6.25
2023-05-05T00:14:12.945Z,6.38
2023-05-05T00:16:40.085Z,7.00
2023-05-05T00:19:07.108Z,6.63
2023-05-05T00:21:34.127Z,7.00
2023-05-05T00:24:01.255Z,6.80
2023-05-05T00:26:28.260Z,7.15
2023-05-05T00:28:55.826Z,7.07
2023-05-05T00:31:23.700Z,7.20
2023-05-05T00:33:50.702Z,6.60
2023-05-05T00:36:18.449Z,7.20
2023-05-05T00:38:45.421Z,6.60
2023-05-05T00:41:13.480Z,6.75
2023-05-05T00:43:40.467Z,6.03
2023-05-05T00:46:26.812Z,6.53
2023-05-05T00:48:54.948Z,5.88
2023-05-05T00:51:24.533Z,6.30
2023-05-05T00:53:52.303Z,6.70
2023-05-05T00:56:22.031Z,6.53
2023-05-05T00:58:49.864Z,7.32
2023-05-05T01:01:17.684Z,7.13
2023-05-05T01:03:45.315Z,8.10
2023-05-05T01:06:36.590Z,7.47
2023-05-05T01:09:27.773Z,7.22
2023-05-05T01:12:20.111Z,6.45
2023-05-05T01:15:32.897Z,6.60
2023-05-05T01:18:11.987Z,9.50
2023-05-05T01:21:06.533Z,8.38
2023-05-05T01:23:58.319Z,7.93
2023-05-05T01:27:18.089Z,8.65
2023-05-05T01:30:10.486Z,7.32
2023-05-05T01:32:49.822Z,7.47
2023-05-05T01:35:31.818Z,7.50
2023-05-05T01:38:21.437Z,7.25
2023-05-05T01:40:59.625Z,7.40
2023-05-05T01:43:33.850Z,7.53
2023-05-05T01:46:03.253Z,6.30
2023-05-05T01:48:31.108Z,7.15
2023-05-05T01:51:00.561Z,6.57
2023-05-05T01:53:28.235Z,7.10
2023-05-05T01:55:57.850Z,6.40
2023-05-05T01:58:29.033Z,6.82
2023-05-05T02:00:58.915Z,6.90
2023-05-05T02:03:29.890Z,7.03
2023-05-05T02:06:00.325Z,7.05
2023-05-05T02:08:30.051Z,7.93
2023-05-05T02:10:59.948Z,7.25
2023-05-05T02:13:32.374Z,7.88
2023-05-05T02:18:28.556Z,8.23
2023-05-05T02:20:55.726Z,7.45
2023-05-05T02:23:23.030Z,7.82
2023-05-05T02:25:55.478Z,7.47
2023-05-05T02:31:00.847Z,7.88
2023-05-05T02:33:34.134Z,7.65
2023-05-05T02:36:22.625Z,8.43
2023-05-05T02:39:03.666Z,7.32
2023-05-05T02:41:39.575Z,7.60
2023-05-05T02:44:15.543Z,8.18
2023-05-05T02:46:43.342Z,8.32
2023-05-05T02:49:10.655Z,8.98
2023-05-05T02:51:39.373Z,8.95
2023-05-05T02:54:12.725Z,7.97
2023-05-05T02:56:47.249Z,8.38
2023-05-05T02:59:36.583Z,8.40
2023-05-05T03:02:27.366Z,9.48
2023-05-05T03:05:16.112Z,8.95
2023-05-05T03:08:08.534Z,8.20
2023-05-05T03:10:47.594Z,9.18
2023-05-05T03:13:20.085Z,8.45
2023-05-05T03:18:22.371Z,8.80
2023-05-05T03:20:56.866Z,8.88
2023-05-05T03:23:24.041Z,7.75
2023-05-05T03:28:30.674Z,8.13
2023-05-05T03:31:01.324Z,9.65
2023-05-05T03:33:28.354Z,9.82
2023-05-05T03:35:58.533Z,9.55
2023-05-05T03:38:26.329Z,7.90
2023-05-05T03:40:53.830Z,7.85
2023-05-05T03:43:23.373Z,8.43
2023-05-05T03:45:50.942Z,9.13
2023-05-05T03:48:18.855Z,8.52
2023-05-05T03:50:46.479Z,9.32
2023-05-05T03:53:14.623Z,8.52
2023-05-05T03:55:42.666Z,8.43
2023-05-05T03:58:11.200Z,8.77
2023-05-05T04:00:38.188Z,8.43
2023-05-05T04:03:05.961Z,8.45
2023-05-05T04:05:33.052Z,8.88
2023-05-05T04:08:00.654Z,8.70
2023-05-05T04:10:27.690Z,10.05
2023-05-05T04:12:54.733Z,8.05
2023-05-05T04:15:22.204Z,7.70
2023-05-05T04:17:50.050Z,8.02
2023-05-05T04:20:17.483Z,7.15
2023-05-05T04:22:44.751Z,7.03
2023-05-05T04:25:11.771Z,6.88
2023-05-05T04:27:38.743Z,6.22
2023-05-05T04:30:09.602Z,6.10
2023-05-05T04:32:39.113Z,6.25
2023-05-05T04:35:08.645Z,6.88
2023-05-05T04:37:35.720Z,7.72
2023-05-05T04:40:03.488Z,6.47
2023-05-05T04:42:32.751Z,6.15
2023-05-05T04:44:59.804Z,6.07
2023-05-05T04:47:26.906Z,6.18
2023-05-05T04:49:57.174Z,5.15
2023-05-05T04:52:24.329Z,5.63
2023-05-05T04:54:51.833Z,5.68
2023-05-05T04:57:18.961Z,5.53
2023-05-05T04:59:46.059Z,5.78
2023-05-05T05:02:13.523Z,5.40
2023-05-05T05:04:41.225Z,5.55
2023-05-05T05:07:09.310Z,5.38
2023-05-05T05:09:36.993Z,6.45
2023-05-05T05:12:04.501Z,5.38
2023-05-05T05:14:39.718Z,5.60
2023-05-05T05:17:07.373Z,5.10
2023-05-05T05:19:37.102Z,6.38
2023-05-05T05:22:04.196Z,5.40
2023-05-05T05:24:34.772Z,5.93
2023-05-05T05:27:01.879Z,5.00
2023-05-05T05:29:29.128Z,5.43
2023-05-05T05:31:57.802Z,5.80
2023-05-05T05:34:24.944Z,5.53
2023-05-05T05:36:52.049Z,5.60
2023-05-05T05:39:21.810Z,6.65
2023-05-05T05:41:48.866Z,6.05
2023-05-05T05:44:15.941Z,4.70
2023-05-05T05:46:43.155Z,5.35
2023-05-05T05:49:10.461Z,6.32
2023-05-05T05:51:37.548Z,5.43
2023-05-05T05:54:04.708Z,5.43
2023-05-05T05:56:31.846Z,5.57
2023-05-05T05:58:59.630Z,5.90
2023-05-05T06:01:27.396Z,5.57
2023-05-05T06:03:54.566Z,5.55
2023-05-05T06:06:22.043Z,5.82
2023-05-05T06:08:49.072Z,5.60
2023-05-05T06:11:16.777Z,5.82
2023-05-05T06:13:44.314Z,5.55
2023-05-05T06:16:11.616Z,5.50
2023-05-05T06:18:41.038Z,5.35
2023-05-05T06:21:08.413Z,5.35
2023-05-05T06:23:36.064Z,5.63
2023-05-05T06:26:05.385Z,5.15
2023-05-05T06:28:32.686Z,5.35
2023-05-05T06:30:59.700Z,5.07
2023-05-05T06:33:26.729Z,5.25
2023-05-05T06:35:54.363Z,4.88
2023-05-05T06:38:21.491Z,5.40
2023-05-05T06:40:49.837Z,5.43
2023-05-05T06:43:17.587Z,5.03
2023-05-05T06:45:52.132Z,5.60
2023-05-05T06:48:19.211Z,4.13
2023-05-05T06:50:47.404Z,4.72
2023-05-05T06:53:14.515Z,5.45
2023-05-05T06:55:47.204Z,4.70
2023-05-05T06:58:14.313Z,4.68
2023-05-05T07:00:42.266Z,5.03
2023-05-05T07:03:09.718Z,5.88
2023-05-05T07:05:36.892Z,4.03
2023-05-05T07:08:04.147Z,4.32
2023-05-05T07:10:34.166Z,4.60
2023-05-05T07:13:01.363Z,4.40
2023-05-05T07:15:29.621Z,4.60
2023-05-05T07:17:57.783Z,4.80
2023-05-05T07:20:25.838Z,4.78
2023-05-05T07:22:52.987Z,4.38
2023-05-05T07:25:21.181Z,4.40
2023-05-05T07:27:48.194Z,4.47
2023-05-05T07:30:18.390Z,4.32
2023-05-05T07:32:46.731Z,4.50
2023-05-05T07:35:14.063Z,3.92
2023-05-05T07:37:41.075Z,4.55
2023-05-05T07:40:09.042Z,4.15
2023-05-05T07:42:36.414Z,4.45
2023-05-05T07:45:04.432Z,4.03
2023-05-05T07:47:31.658Z,3.75
2023-05-05T07:49:58.804Z,4.65
2023-05-05T07:52:43.358Z,5.03
2023-05-05T07:55:12.262Z,4.22
2023-05-05T07:57:39.689Z,4.20
2023-05-05T08:00:07.973Z,4.03
2023-05-05T08:02:41.582Z,4.35
2023-05-05T08:05:09.189Z,3.80
2023-05-05T08:07:41.032Z,4.20
2023-05-05T08:10:12.429Z,3.90
2023-05-05T08:12:40.579Z,4.10
2023-05-05T08:15:08.654Z,4.20
2023-05-05T08:17:53.319Z,3.90
2023-05-05T08:20:21.040Z,4.05
2023-05-05T08:22:48.442Z,4.15
2023-05-05T08:25:15.675Z,4.38
2023-05-05T08:27:43.302Z,3.72
2023-05-05T08:30:11.239Z,4.25
2023-05-05T08:32:41.578Z,3.80
2023-05-05T08:35:09.447Z,4.30
2023-05-05T08:37:36.782Z,3.50
2023-05-05T08:40:04.979Z,4.00
2023-05-05T08:42:36.929Z,3.72
2023-05-05T08:45:10.468Z,3.55
2023-05-05T08:47:39.322Z,3.70
2023-05-05T08:50:09.942Z,3.60
2023-05-05T08:52:53.745Z,3.67
2023-05-05T08:55:26.826Z,3.45
2023-05-05T08:57:58.052Z,3.13
2023-05-05T09:00:27.202Z,3.38
2023-05-05T09:03:00.181Z,3.72
2023-05-05T09:05:27.684Z,3.78
2023-05-05T09:07:54.804Z,3.72
2023-05-05T09:10:22.148Z,3.70
2023-05-05T09:12:51.669Z,3.50
2023-05-05T09:15:21.010Z,3.17
2023-05-05T09:17:48.020Z,2.83
2023-05-05T09:20:15.512Z,2.60
2023-05-05T09:22:45.619Z,3.13
2023-05-05T09:25:18.414Z,3.20
2023-05-05T09:27:49.580Z,2.95
2023-05-05T09:30:25.048Z,3.03
2023-05-05T09:32:54.782Z,2.50
2023-05-05T09:35:23.212Z,2.78
2023-05-05T09:37:50.266Z,2.28
2023-05-05T09:40:19.704Z,2.20
2023-05-05T09:42:47.473Z,2.80
2023-05-05T09:45:17.684Z,2.83
2023-05-05T09:47:46.808Z,3.10
2023-05-05T09:50:16.277Z,2.50
2023-05-05T09:52:43.595Z,5.15
2023-05-05T09:55:19.779Z,2.80
2023-05-05T09:57:47.520Z,3.03
2023-05-05T10:00:15.319Z,3.50
2023-05-05T10:02:42.528Z,2.67
2023-05-05T10:05:16.396Z,2.40
2023-05-05T10:07:46.500Z,2.90
2023-05-05T10:10:18.372Z,2.75
2023-05-05T10:12:49.973Z,3.10
2023-05-05T10:15:17.723Z,3.08
2023-05-05T10:18:05.943Z,2.40
2023-05-05T10:20:38.693Z,2.50
2023-05-05T10:23:14.440Z,2.83
2023-05-05T10:26:00.030Z,2.25
2023-05-05T10:28:43.954Z,1.95
2023-05-05T10:31:25.702Z,2.13
2023-05-05T10:34:13.103Z,2.50
2023-05-05T10:36:40.257Z,3.05
2023-05-05T10:39:09.383Z,2.30
2023-05-05T10:41:37.733Z,2.42
2023-05-05T10:44:06.658Z,2.33
2023-05-05T10:46:33.821Z,2.33
2023-05-05T10:50:03.750Z,2.78
2023-05-05T10:53:26.099Z,2.33
2023-05-05T10:56:05.281Z,2.38
2023-05-05T10:58:51.220Z,2.22
2023-05-05T11:01:34.814Z,2.35
2023-05-05T11:04:23.399Z,2.17
2023-05-05T11:07:10.475Z,2.13
2023-05-05T11:10:04.349Z,2.38
2023-05-05T11:12:53.291Z,2.15
2023-05-05T11:15:29.454Z,2.00
2023-05-05T11:17:58.678Z,2.40
2023-05-05T11:20:40.843Z,2.05
2023-05-05T11:23:07.907Z,2.42
2023-05-05T11:25:35.253Z,2.40
2023-05-05T11:28:25.582Z,2.38
2023-05-05T11:30:58.871Z,2.00
2023-05-05T11:33:38.270Z,2.13
2023-05-05T11:36:15.014Z,2.55
2023-05-05T11:39:21.109Z,2.22
2023-05-05T11:42:22.200Z,2.22
2023-05-05T11:44:49.890Z,2.47
2023-05-05T11:47:19.831Z,1.95
2023-05-05T11:49:47.066Z,2.10
2023-05-05T11:52:15.153Z,2.25
2023-05-05T11:54:48.999Z,2.08
2023-05-05T11:57:21.353Z,1.85
2023-05-05T11:59:58.984Z,2.03
2023-05-05T12:02:28.696Z,2.13
2023-05-05T12:04:58.212Z,2.28
2023-05-05T12:07:29.082Z,2.08
2023-05-05T12:09:57.931Z,1.95
2023-05-05T12:12:40.127Z,1.80
2023-05-05T12:15:09.536Z,1.70
2023-05-05T12:17:45.941Z,2.33
2023-05-05T12:20:13.850Z,2.25
2023-05-05T12:22:41.165Z,2.38
2023-05-05T12:25:09.646Z,2.50
2023-05-05T12:27:41.777Z,2.50
2023-05-05T12:30:16.187Z,2.40
2023-05-05T12:32:44.752Z,2.42
2023-05-05T12:35:12.859Z,2.75
2023-05-05T12:37:40.643Z,2.40
2023-05-05T12:40:28.130Z,2.33
2023-05-05T12:42:55.423Z,2.63
2023-05-05T12:45:22.444Z,2.60
2023-05-05T12:47:49.909Z,1.92
2023-05-05T12:50:33.360Z,1.75
2023-05-05T12:53:00.939Z,2.28
2023-05-05T12:55:38.004Z,2.33
2023-05-05T12:58:05.477Z,2.10
2023-05-05T13:00:32.486Z,2.40
2023-05-05T13:02:59.699Z,2.03
2023-05-05T13:05:38.007Z,2.03
2023-05-05T13:08:05.352Z,2.03
2023-05-05T13:10:32.340Z,2.00
2023-05-05T13:12:59.405Z,2.28
2023-05-05T13:15:27.351Z,2.25
2023-05-05T13:18:01.273Z,1.80
2023-05-05T13:20:28.514Z,1.70
2023-05-05T13:22:55.521Z,2.47
2023-05-05T13:25:22.806Z,2.25
2023-05-05T13:27:49.821Z,2.38
2023-05-05T13:30:16.891Z,2.13
2023-05-05T13:32:43.896Z,2.45
2023-05-05T13:35:13.207Z,2.25
2023-05-05T13:37:42.536Z,1.65
2023-05-05T13:40:10.761Z,1.70
2023-05-05T13:42:37.669Z,2.20
2023-05-05T13:45:05.577Z,2.35
2023-05-05T13:47:32.962Z,2.15
2023-05-05T13:49:59.969Z,2.20
2023-05-05T13:52:27.584Z,2.10
2023-05-05T13:54:55.206Z,1.90
2023-05-05T13:57:22.143Z,2.20
2023-05-05T13:59:49.105Z,1.85
2023-05-05T14:02:16.070Z,2.00
2023-05-05T14:04:45.050Z,1.70
2023-05-05T14:07:12.037Z,1.90
2023-05-05T14:09:39.144Z,2.22
2023-05-05T14:12:06.250Z,2.25
2023-05-05T14:14:34.362Z,1.92
2023-05-05T14:17:01.408Z,2.40
2023-05-05T14:19:28.454Z,2.22
2023-05-05T14:21:55.686Z,1.90
2023-05-05T14:24:22.677Z,1.80
2023-05-05T14:26:49.655Z,1.90
2023-05-05T14:29:16.603Z,1.52
2023-05-05T14:31:44.225Z,2.17
2023-05-05T14:34:11.499Z,1.95
2023-05-05T14:36:38.410Z,2.35
2023-05-05T14:39:07.744Z,2.20
2023-05-05T14:41:34.708Z,2.20
2023-05-05T14:44:01.761Z,1.98
2023-05-05T14:46:28.882Z,2.20
2023-05-05T14:48:56.257Z,2.22
2023-05-05T14:51:23.417Z,2.25
2023-05-05T14:53:50.624Z,2.75
2023-05-05T14:56:17.907Z,2.83
2023-05-05T14:58:44.872Z,1.95
2023-05-05T15:01:12.006Z,2.60
2023-05-05T15:03:39.035Z,2.30
2023-05-05T15:06:07.772Z,1.92
2023-05-05T15:08:35.154Z,2.00
2023-05-05T15:11:02.669Z,2.30
2023-05-05T15:13:30.104Z,2.17
2023-05-05T15:15:57.355Z,3.05
2023-05-05T15:18:24.365Z,2.30
2023-05-05T15:20:51.378Z,1.80
2023-05-05T15:23:19.665Z,2.40
2023-05-05T15:25:46.762Z,2.63
2023-05-05T15:28:13.710Z,2.70
2023-05-05T15:30:40.771Z,2.10
2023-05-05T15:33:07.794Z,2.33
2023-05-05T15:35:34.732Z,3.00
2023-05-05T15:38:03.168Z,2.63
2023-05-05T15:40:30.303Z,2.47
2023-05-05T15:42:57.941Z,3.15
2023-05-05T15:45:25.009Z,2.28
2023-05-05T15:47:53.012Z,2.42
2023-05-05T15:50:20.324Z,2.15
2023-05-05T15:52:49.796Z,2.25
2023-05-05T15:55:17.530Z,2.30
2023-05-05T15:57:44.557Z,3.05
2023-05-05T16:00:12.483Z,2.80
2023-05-05T16:02:39.719Z,2.20
2023-05-05T16:05:07.568Z,2.45
2023-05-05T16:07:34.752Z,1.95
2023-05-05T16:10:01.729Z,2.10
2023-05-05T16:12:29.052Z,2.30
2023-05-05T16:14:56.066Z,2.22
2023-05-05T16:17:23.014Z,2.65
2023-05-05T16:19:50.075Z,2.25
2023-05-05T16:22:17.317Z,3.00
2023-05-05T16:24:45.382Z,2.75
2023-05-05T16:27:12.430Z,2.30
2023-05-05T16:29:39.413Z,2.33
2023-05-05T16:32:06.514Z,2.20
2023-05-05T16:34:33.532Z,2.20
2023-05-05T16:37:00.805Z,2.50
2023-05-05T16:39:27.885Z,2.28
2023-05-05T16:41:54.977Z,2.40
2023-05-05T16:44:22.096Z,2.50
2023-05-05T16:46:49.137Z,2.60
2023-05-05T16:49:16.201Z,2.42
2023-05-05T16:51:45.906Z,2.50
2023-05-05T16:54:13.176Z,3.10
2023-05-05T16:56:40.090Z,2.70
2023-05-05T16:59:07.142Z,2.67
2023-05-05T17:01:34.980Z,2.83
2023-05-05T17:04:04.769Z,3.00
2023-05-05T17:06:35.038Z,2.55
2023-05-05T17:09:02.071Z,2.40
2023-05-05T17:11:28.991Z,2.90
2023-05-05T17:13:56.355Z,2.20
2023-05-05T17:16:23.451Z,3.13
2023-05-05T17:18:50.664Z,3.38
2023-05-05T17:21:17.635Z,2.30
2023-05-05T17:23:44.682Z,2.70
2023-05-05T17:26:11.602Z,2.80
2023-05-05T17:28:38.724Z,2.80
2023-05-05T17:31:05.756Z,2.65
2023-05-05T17:33:32.796Z,2.60
2023-05-05T17:35:59.805Z,3.03
2023-05-05T17:38:26.749Z,3.10
2023-05-05T17:40:53.800Z,2.97
2023-05-05T17:43:20.825Z,3.13
2023-05-05T17:45:48.061Z,2.78
2023-05-05T17:48:15.401Z,3.10
2023-05-05T17:50:43.443Z,2.78
2023-05-05T17:53:11.136Z,3.05
2023-05-05T17:55:38.081Z,2.65
2023-05-05T17:58:05.112Z,2.90
2023-05-05T18:00:32.051Z,3.08
2023-05-05T18:03:00.879Z,3.28
2023-05-05T18:05:28.089Z,3.58
2023-05-05T18:07:55.090Z,4.00
2023-05-05T18:10:22.224Z,2.88
2023-05-05T18:12:49.233Z,3.15
2023-05-05T18:15:16.467Z,3.47
2023-05-05T18:17:44.159Z,3.22
2023-05-05T18:20:11.528Z,2.95
2023-05-05T18:22:38.778Z,3.05
2023-05-05T18:25:07.939Z,2.83
2023-05-05T18:27:36.056Z,3.78
2023-05-05T18:30:04.786Z,3.70
2023-05-05T18:32:32.433Z,3.20
2023-05-05T18:34:59.392Z,3.45
2023-05-05T18:37:26.369Z,3.85
2023-05-05T18:39:53.271Z,3.75
2023-05-05T18:42:20.227Z,2.90
2023-05-05T18:44:47.191Z,3.38
2023-05-05T18:47:14.135Z,3.60
2023-05-05T18:49:41.167Z,4.05
2023-05-05T18:52:08.229Z,4.18
2023-05-05T18:54:37.008Z,3.53
2023-05-05T18:57:05.081Z,3.60
2023-05-05T18:59:32.116Z,4.07
2023-05-05T19:01:59.534Z,3.40
2023-05-05T19:04:31.177Z,3.67
2023-05-05T19:06:59.795Z,3.28
2023-05-05T19:09:27.026Z,3.67
2023-05-05T19:11:53.971Z,3.53
2023-05-05T19:14:20.944Z,3.50
2023-05-05T19:16:48.947Z,3.90
2023-05-05T19:19:15.938Z,4.13
2023-05-05T19:21:43.002Z,4.68
2023-05-05T19:24:12.955Z,3.55
2023-05-05T19:26:40.232Z,3.83
2023-05-05T19:29:07.167Z,4.32
2023-05-05T19:31:34.274Z,4.07
2023-05-05T19:34:05.105Z,3.65
2023-05-05T19:36:33.310Z,3.92
2023-05-05T19:39:02.313Z,4.18
2023-05-05T19:41:30.883Z,4.30
2023-05-05T19:43:57.815Z,3.97
2023-05-05T19:46:27.630Z,3.78
2023-05-05T19:48:55.135Z,4.32
2023-05-05T19:51:22.285Z,3.80
2023-05-05T19:53:50.757Z,3.80
2023-05-05T19:56:17.769Z,4.18
2023-05-05T19:59:00.621Z,3.90
2023-05-05T20:01:29.518Z,3.97
2023-05-05T20:03:57.326Z,3.80
2023-05-05T20:06:24.746Z,3.97
2023-05-05T20:08:52.266Z,4.60
2023-05-05T20:11:21.104Z,4.97
2023-05-05T20:13:49.934Z,4.25
2023-05-05T20:16:17.953Z,5.30
2023-05-05T20:18:45.228Z,4.90
2023-05-05T20:21:12.461Z,4.78
2023-05-05T20:23:42.782Z,4.53
2023-05-05T20:26:10.040Z,4.65
2023-05-05T20:28:39.129Z,5.03
2023-05-05T20:31:07.085Z,4.80
2023-05-05T20:33:34.436Z,4.80
2023-05-05T20:36:02.272Z,5.68
2023-05-05T20:38:29.323Z,4.97
2023-05-05T20:40:56.374Z,4.85
2023-05-05T20:43:24.457Z,4.78
2023-05-05T20:45:51.698Z,5.28
2023-05-05T20:48:19.295Z,5.05
2023-05-05T20:50:46.387Z,4.75
2023-05-05T20:53:18.852Z,5.00
2023-05-05T20:55:46.197Z,5.00
2023-05-05T20:58:16.638Z,4.57
2023-05-05T21:00:44.269Z,5.35
2023-05-05T21:03:11.869Z,4.38
2023-05-05T21:05:41.145Z,5.10
2023-05-05T21:08:09.301Z,5.43
2023-05-05T21:10:36.787Z,4.82
2023-05-05T21:13:04.418Z,4.70
2023-05-05T21:15:31.968Z,5.88
2023-05-05T21:17:59.087Z,5.40
2023-05-05T21:20:26.719Z,4.53
2023-05-05T21:22:53.811Z,4.68
2023-05-05T21:25:21.781Z,5.25
2023-05-05T21:27:49.454Z,5.20
2023-05-05T21:30:17.342Z,4.55
2023-05-05T21:32:45.700Z,4.88
2023-05-05T21:35:12.746Z,4.38
2023-05-05T21:37:40.359Z,4.35
2023-05-05T21:40:14.004Z,4.47
2023-05-05T21:42:42.725Z,4.65
2023-05-05T21:45:12.215Z,4.72
2023-05-05T21:47:39.677Z,4.38
2023-05-05T21:50:08.341Z,4.50
2023-05-05T21:52:35.557Z,4.40
2023-05-05T21:55:05.281Z,4.50
2023-05-05T21:57:32.387Z,4.50
2023-05-05T21:59:59.458Z,4.88
2023-05-05T22:02:26.467Z,5.60
2023-05-05T22:04:55.951Z,5.00
2023-05-05T22:07:24.803Z,5.25
2023-05-05T22:09:57.805Z,5.03
2023-05-05T22:12:26.116Z,4.45
2023-05-05T22:14:53.361Z,4.95
2023-05-05T22:17:20.716Z,4.68
2023-05-05T22:19:50.534Z,5.47
2023-05-05T22:22:21.778Z,4.53
2023-05-05T22:24:49.287Z,4.65
2023-05-05T22:27:17.287Z,4.18
2023-05-05T22:29:44.793Z,4.10
2023-05-05T22:32:12.496Z,4.40
2023-05-05T22:34:39.719Z,4.05
2023-05-05T22:37:07.773Z,4.55
2023-05-05T22:39:35.505Z,4.72
2023-05-05T22:42:03.729Z,4.80
2023-05-05T22:44:30.970Z,4.50
2023-05-05T22:46:58.782Z,4.82
2023-05-05T22:49:26.444Z,4.65
2023-05-05T22:51:53.638Z,4.57
2023-05-05T22:54:20.850Z,4.70
2023-05-05T22:56:48.237Z,4.38
2023-05-05T22:59:15.534Z,5.05
2023-05-05T23:01:42.913Z,4.45
2023-05-05T23:04:09.953Z,4.88
2023-05-05T23:06:37.081Z,4.80
2023-05-05T23:09:04.375Z,5.22
2023-05-05T23:11:31.371Z,5.20
2023-05-05T23:13:58.531Z,5.18
2023-05-05T23:16:25.841Z,5.40
2023-05-05T23:18:52.820Z,5.55
2023-05-05T23:21:19.924Z,5.82
2023-05-05T23:23:47.204Z,5.75
2023-05-05T23:26:14.145Z,6.28
2023-05-05T23:28:41.577Z,6.00
2023-05-05T23:31:09.272Z,6.53
2023-05-05T23:33:36.231Z,5.90
2023-05-05T23:36:03.214Z,6.97
2023-05-05T23:38:30.317Z,7.75
2023-05-05T23:40:57.238Z,6.65
2023-05-05T23:43:24.206Z,7.00
2023-05-05T23:45:51.579Z,7.53
2023-05-05T23:48:18.600Z,7.95
2023-05-05T23:50:45.663Z,7.75
2023-05-05T23:53:12.883Z,7.82
2023-05-05T23:55:39.896Z,8.43
2023-05-05T23:58:06.926Z,7.90
